Time;durP1;ratioP1;P1;durP2;ratioP2;P2;SDS_P1;SDS_P2;PMS_P1;PMS_P2;Temp;Humidity;BMP_temperature;BMP_pressure;BME280_temperature;BME280_humidity;BME280_pressure;Samples;Min_cycle;Max_cycle;Signal;HPM_P1;HPM_P2
2023/05/01 00:00:48;;;;;;;2.92;2.22;;;13.00;98.30;;;;;;5041740;28;20125;-43
2023/05/01 00:03:14;;;;;;;3.67;2.03;;;13.00;98.40;;;;;;5043667;28;20029;-43
2023/05/01 00:05:40;;;;;;;2.85;2.13;;;13.00;98.30;;;;;;5041712;28;20040;-42
2023/05/01 00:08:06;;;;;;;2.78;2.05;;;13.10;98.30;;;;;;5042479;28;20020;-43
2023/05/01 00:10:35;;;;;;;4.53;2.38;;;13.00;98.30;;;;;;5043694;28;20029;-42
2023/05/01 00:13:00;;;;;;;4.55;2.47;;;13.00;98.30;;;;;;5042798;28;20151;-42
2023/05/01 00:15:26;;;;;;;3.83;2.10;;;13.00;98.30;;;;;;5043229;28;20609;-43
2023/05/01 00:17:52;;;;;;;3.63;2.10;;;12.90;98.30;;;;;;5042258;28;20032;-42
2023/05/01 00:20:18;;;;;;;4.45;2.10;;;13.00;98.30;;;;;;5042516;28;20531;-42
2023/05/01 00:22:43;;;;;;;3.88;2.50;;;12.90;98.30;;;;;;5043042;28;20135;-43
2023/05/01 00:25:09;;;;;;;3.55;2.63;;;12.90;98.30;;;;;;5042587;28;20396;-42
2023/05/01 00:27:35;;;;;;;2.80;2.13;;;12.90;98.40;;;;;;5041387;28;20052;-43
2023/05/01 00:30:01;;;;;;;3.97;2.25;;;12.90;98.40;;;;;;5042983;28;20029;-42
2023/05/01 00:32:26;;;;;;;3.42;2.10;;;12.90;98.40;;;;;;5043473;28;20392;-44
2023/05/01 00:34:52;;;;;;;5.65;2.60;;;12.90;98.40;;;;;;5042433;28;20017;-43
2023/05/01 00:37:18;;;;;;;5.53;2.67;;;12.90;98.40;;;;;;5043553;28;20017;-43
2023/05/01 00:39:43;;;;;;;4.72;2.30;;;12.90;98.40;;;;;;5039789;28;20683;-43
2023/05/01 00:42:09;;;;;;;3.35;2.17;;;12.80;98.30;;;;;;5041948;28;20040;-43
2023/05/01 00:44:34;;;;;;;3.38;2.13;;;12.80;98.30;;;;;;5042828;28;20075;-43
2023/05/01 00:47:02;;;;;;;4.95;1.98;;;12.80;98.30;;;;;;5041641;28;20070;-42
2023/05/01 00:49:27;;;;;;;3.50;2.17;;;12.80;98.30;;;;;;5041829;28;20087;-43
2023/05/01 00:51:53;;;;;;;5.20;2.40;;;12.80;98.30;;;;;;5042762;28;20054;-43
2023/05/01 00:54:19;;;;;;;3.78;2.30;;;12.70;98.30;;;;;;5041226;28;20033;-43
2023/05/01 00:56:51;;;;;;;4.13;2.10;;;12.70;98.30;;;;;;5042414;28;20468;-43
2023/05/01 00:59:17;;;;;;;3.85;2.20;;;12.70;98.20;;;;;;5041872;28;20041;-43
2023/05/01 01:01:43;;;;;;;2.97;2.20;;;12.70;98.20;;;;;;5034773;28;20029;-43
2023/05/01 01:04:08;;;;;;;2.85;2.10;;;12.70;98.10;;;;;;5035314;28;20120;-43
2023/05/01 01:06:54;;;;;;;3.35;2.10;;;12.70;98.10;;;;;;5042466;28;20025;-44
2023/05/01 01:09:42;;;;;;;1.95;1.65;;;12.70;98.00;;;;;;5042005;28;20028;-42
2023/05/01 01:12:25;;;;;;;3.00;1.92;;;12.60;98.00;;;;;;5022173;28;20436;-42
2023/05/01 01:15:08;;;;;;;3.90;1.98;;;12.60;97.90;;;;;;5038597;28;20033;-43
2023/05/01 01:17:50;;;;;;;3.38;1.60;;;12.60;97.80;;;;;;5040306;28;20029;-43
2023/05/01 01:20:23;;;;;;;4.15;1.88;;;12.60;97.80;;;;;;5038395;28;20029;-43
2023/05/01 01:23:34;;;;;;;3.25;2.00;;;12.60;97.70;;;;;;5041724;28;20086;-42
2023/05/01 01:26:23;;;;;;;2.50;2.00;;;12.60;97.60;;;;;;5012129;28;20504;-43
2023/05/01 01:29:22;;;;;;;3.35;1.67;;;12.60;97.50;;;;;;5041608;28;20021;-43
2023/05/01 01:32:12;;;;;;;2.85;1.70;;;12.70;97.40;;;;;;5033467;28;21083;-43
2023/05/01 01:34:42;;;;;;;2.88;1.70;;;12.70;97.40;;;;;;5041627;28;20769;-43
2023/05/01 01:37:17;;;;;;;3.55;1.70;;;12.70;97.30;;;;;;5039891;28;20057;-43
2023/05/01 01:40:04;;;;;;;3.35;1.90;;;12.70;97.30;;;;;;5041489;28;20476;-43
2023/05/01 01:42:51;;;;;;;3.60;1.60;;;12.70;97.20;;;;;;5035573;28;20038;-43
2023/05/01 01:45:29;;;;;;;3.50;1.80;;;12.60;97.20;;;;;;5032729;28;20111;-44
2023/05/01 01:47:56;;;;;;;5.45;2.10;;;12.60;97.10;;;;;;5041290;28;20053;-42
2023/05/01 01:50:25;;;;;;;6.65;1.88;;;12.60;97.10;;;;;;5040883;28;20040;-42
2023/05/01 01:52:52;;;;;;;4.05;1.70;;;12.60;97.10;;;;;;5040899;28;20033;-41
2023/05/01 01:55:24;;;;;;;5.68;1.80;;;12.60;97.00;;;;;;5041134;28;20025;-43
2023/05/01 01:57:50;;;;;;;2.38;1.52;;;12.60;97.00;;;;;;5040010;28;20064;-42
2023/05/01 02:00:17;;;;;;;3.13;2.13;;;12.50;97.00;;;;;;5041613;28;20029;-42
2023/05/01 02:02:44;;;;;;;4.50;2.15;;;12.50;97.00;;;;;;5041484;28;20025;-43
2023/05/01 02:05:13;;;;;;;6.00;2.60;;;12.50;97.00;;;;;;5035991;28;20021;-43
2023/05/01 02:07:40;;;;;;;5.10;2.40;;;12.40;96.90;;;;;;5030806;28;20422;-43
2023/05/01 02:10:10;;;;;;;4.57;2.40;;;12.40;97.00;;;;;;5040456;28;20028;-43
2023/05/01 02:12:36;;;;;;;3.67;2.25;;;12.40;96.90;;;;;;5035696;28;20124;-43
2023/05/01 02:15:03;;;;;;;5.18;2.88;;;12.30;96.90;;;;;;5022428;28;20052;-42
2023/05/01 02:17:30;;;;;;;5.13;2.83;;;12.40;96.90;;;;;;5041281;28;20053;-42
2023/05/01 02:19:57;;;;;;;4.70;2.78;;;12.40;96.90;;;;;;5040351;28;20025;-44
2023/05/01 02:22:25;;;;;;;6.00;2.40;;;12.40;96.90;;;;;;5040670;28;20025;-42
2023/05/01 02:24:55;;;;;;;5.88;3.70;;;12.40;96.90;;;;;;5041389;28;20132;-43
2023/05/01 02:27:25;;;;;;;6.10;4.03;;;12.40;96.90;;;;;;5039482;28;20040;-43
2023/05/01 02:29:54;;;;;;;8.90;4.72;;;12.40;96.90;;;;;;5041064;28;20032;-42
2023/05/01 02:32:20;;;;;;;7.90;4.15;;;12.40;96.90;;;;;;5040700;28;20559;-42
2023/05/01 02:34:45;;;;;;;5.40;3.33;;;12.40;96.90;;;;;;5040327;28;20025;-43
2023/05/01 02:37:11;;;;;;;3.92;2.72;;;12.40;96.80;;;;;;5033119;28;20033;-42
2023/05/01 02:39:38;;;;;;;5.10;2.72;;;12.50;96.90;;;;;;5040238;28;20134;-43
2023/05/01 02:42:08;;;;;;;4.63;2.35;;;12.50;96.80;;;;;;5039375;28;20531;-43
2023/05/01 02:44:44;;;;;;;4.22;2.17;;;12.60;96.80;;;;;;5040546;28;20379;-43
2023/05/01 02:47:15;;;;;;;5.35;2.35;;;12.50;96.70;;;;;;5034491;28;20261;-43
2023/05/01 02:49:45;;;;;;;2.70;1.85;;;12.50;96.70;;;;;;5036021;28;20029;-43
2023/05/01 02:52:12;;;;;;;4.10;2.30;;;12.50;96.70;;;;;;5040728;28;20072;-43
2023/05/01 02:54:38;;;;;;;2.88;1.95;;;12.50;96.70;;;;;;5039773;28;20510;-43
2023/05/01 02:57:04;;;;;;;6.57;2.40;;;12.50;96.70;;;;;;5037481;28;20025;-43
2023/05/01 02:59:30;;;;;;;3.30;2.20;;;12.40;97.00;;;;;;5040291;28;20025;-42
2023/05/01 03:01:59;;;;;;;3.42;2.15;;;12.40;96.70;;;;;;5038390;28;20445;-43
2023/05/01 03:04:24;;;;;;;4.95;2.00;;;12.40;96.80;;;;;;5039922;28;20048;-43
2023/05/01 03:06:50;;;;;;;5.32;2.22;;;12.40;96.80;;;;;;5040536;28;20112;-43
2023/05/01 03:09:16;;;;;;;2.72;1.90;;;12.40;96.80;;;;;;5039909;28;20021;-43
2023/05/01 03:11:44;;;;;;;5.72;2.40;;;12.40;96.80;;;;;;5040656;28;20036;-43
2023/05/01 03:14:10;;;;;;;4.72;2.00;;;12.40;96.80;;;;;;5040361;28;20033;-44
2023/05/01 03:16:36;;;;;;;5.00;2.10;;;12.40;96.80;;;;;;5038920;28;20769;-43
2023/05/01 03:19:01;;;;;;;4.50;2.08;;;12.40;96.80;;;;;;5040262;28;20171;-44
2023/05/01 03:21:27;;;;;;;3.75;2.28;;;12.40;96.80;;;;;;5040620;28;20104;-44
2023/05/01 03:23:53;;;;;;;3.13;1.95;;;12.40;96.90;;;;;;5039657;28;20055;-42
2023/05/01 03:26:18;;;;;;;4.30;2.15;;;12.40;96.80;;;;;;5044141;28;20086;-42
2023/05/01 03:28:44;;;;;;;5.90;2.40;;;12.40;96.80;;;;;;5044171;28;20017;-43
2023/05/01 03:31:16;;;;;;;5.28;2.17;;;12.40;96.90;;;;;;5032946;28;20033;-43
2023/05/01 03:33:41;;;;;;;5.23;2.40;;;12.30;96.90;;;;;;5040365;28;20498;-44
2023/05/01 03:36:13;;;;;;;3.10;2.20;;;12.30;96.90;;;;;;5043254;28;20021;-41
2023/05/01 03:38:39;;;;;;;4.22;2.25;;;12.30;96.90;;;;;;5043509;28;20568;-42
2023/05/01 03:41:04;;;;;;;3.20;2.22;;;12.30;96.90;;;;;;5043961;28;20035;-43
2023/05/01 03:43:30;;;;;;;6.15;2.60;;;12.30;96.90;;;;;;5042923;28;20123;-43
2023/05/01 03:45:56;;;;;;;4.00;2.20;;;12.30;96.90;;;;;;5044083;28;20021;-43
2023/05/01 03:48:23;;;;;;;7.45;2.40;;;12.30;97.20;;;;;;5043737;28;20553;-42
2023/05/01 03:50:49;;;;;;;3.83;2.28;;;12.30;97.00;;;;;;5043297;28;20071;-43
2023/05/01 03:53:15;;;;;;;3.97;2.58;;;12.30;97.00;;;;;;5043446;28;20037;-42
2023/05/01 03:55:41;;;;;;;5.13;2.65;;;12.20;97.00;;;;;;5042912;28;20546;-42
2023/05/01 03:58:06;;;;;;;4.30;2.42;;;12.20;97.00;;;;;;5041839;28;20047;-43
2023/05/01 04:00:32;;;;;;;3.80;2.08;;;12.20;97.10;;;;;;5042670;28;20386;-43
2023/05/01 04:02:58;;;;;;;4.00;2.30;;;12.30;97.10;;;;;;5043272;28;20021;-42
2023/05/01 04:05:24;;;;;;;4.03;2.45;;;12.30;97.10;;;;;;5042162;28;20021;-42
2023/05/01 04:07:52;;;;;;;6.28;2.42;;;12.30;97.10;;;;;;5043476;28;20133;-42
2023/05/01 04:10:18;;;;;;;4.03;2.15;;;12.20;97.10;;;;;;5043231;28;20017;-43
2023/05/01 04:12:43;;;;;;;4.90;2.45;;;12.20;97.10;;;;;;5042592;28;20037;-43
2023/05/01 04:15:09;;;;;;;3.50;2.25;;;12.20;97.10;;;;;;5042432;28;20131;-42
2023/05/01 04:17:36;;;;;;;4.68;2.35;;;12.20;97.20;;;;;;5037717;28;20555;-42
2023/05/01 04:20:05;;;;;;;2.45;1.95;;;12.20;97.20;;;;;;5043270;28;20051;-43
2023/05/01 04:22:34;;;;;;;5.55;2.60;;;12.30;97.30;;;;;;5043950;28;20033;-42
2023/05/01 04:24:59;;;;;;;5.15;2.40;;;12.30;97.30;;;;;;5035060;28;20397;-43
2023/05/01 04:27:25;;;;;;;4.05;2.20;;;12.30;97.30;;;;;;5042987;28;20055;-43
2023/05/01 04:29:51;;;;;;;4.05;2.28;;;12.30;97.30;;;;;;5043019;28;20021;-42
2023/05/01 04:32:19;;;;;;;4.07;2.70;;;12.30;97.30;;;;;;5042826;28;20060;-43
2023/05/01 04:34:45;;;;;;;5.40;2.10;;;12.30;97.40;;;;;;5043644;28;20021;-42
2023/05/01 04:37:11;;;;;;;4.75;2.30;;;12.30;97.40;;;;;;5041892;28;20287;-43
2023/05/01 04:39:36;;;;;;;6.75;2.75;;;12.30;97.30;;;;;;5042514;28;20118;-43
2023/05/01 04:42:03;;;;;;;4.60;2.63;;;12.30;97.30;;;;;;5042823;28;20031;-42
2023/05/01 04:44:29;;;;;;;4.30;2.72;;;12.30;97.30;;;;;;5042321;28;20029;-43
2023/05/01 04:46:55;;;;;;;5.07;2.40;;;12.30;97.20;;;;;;5040580;28;20029;-43
2023/05/01 04:49:21;;;;;;;5.22;2.40;;;12.30;97.20;;;;;;5042908;28;20385;-43
2023/05/01 04:51:47;;;;;;;5.75;3.00;;;12.30;97.20;;;;;;5041414;28;20752;-43
2023/05/01 04:54:12;;;;;;;4.53;2.63;;;12.30;97.20;;;;;;5042212;28;20028;-43
2023/05/01 04:56:38;;;;;;;5.18;2.53;;;12.30;97.20;;;;;;5042761;28;20030;-43
2023/05/01 04:59:04;;;;;;;3.65;2.60;;;12.30;97.20;;;;;;5042986;28;20136;-43
2023/05/01 05:01:29;;;;;;;7.07;2.25;;;12.30;97.20;;;;;;5040546;28;20050;-43
2023/05/01 05:03:55;;;;;;;6.47;2.60;;;12.30;97.20;;;;;;5042491;28;20047;-43
2023/05/01 05:06:21;;;;;;;5.07;3.00;;;12.30;97.20;;;;;;5040867;28;20530;-44
2023/05/01 05:08:50;;;;;;;5.88;2.63;;;12.40;97.30;;;;;;5041560;28;20037;-43
2023/05/01 05:11:19;;;;;;;4.10;2.28;;;12.40;97.30;;;;;;5042012;28;20487;-43
2023/05/01 05:13:45;;;;;;;4.07;2.50;;;12.40;97.30;;;;;;5039221;28;20044;-43
2023/05/01 05:16:11;;;;;;;4.85;2.55;;;12.40;97.30;;;;;;5024182;28;20393;-43
2023/05/01 05:18:37;;;;;;;5.22;2.65;;;12.50;97.30;;;;;;5040836;28;20385;-43
2023/05/01 05:21:07;;;;;;;5.30;2.70;;;12.50;97.30;;;;;;5042393;28;20520;-43
2023/05/01 05:23:33;;;;;;;4.47;2.67;;;12.50;97.30;;;;;;5041223;28;20029;-42
2023/05/01 05:26:00;;;;;;;7.05;2.72;;;12.60;97.30;;;;;;5042152;28;20021;-43
2023/05/01 05:28:29;;;;;;;4.55;2.95;;;12.60;97.20;;;;;;5041367;28;20029;-43
2023/05/01 05:30:55;;;;;;;4.28;2.60;;;12.60;97.20;;;;;;5040016;28;20152;-43
2023/05/01 05:33:21;;;;;;;4.63;2.78;;;12.60;97.20;;;;;;5041943;28;20591;-44
2023/05/01 05:35:47;;;;;;;3.85;2.65;;;12.70;97.30;;;;;;5040448;28;20104;-43
2023/05/01 05:38:14;;;;;;;5.03;2.65;;;12.70;97.30;;;;;;5039701;28;20052;-43
2023/05/01 05:40:40;;;;;;;4.43;2.80;;;12.70;97.30;;;;;;5038382;28;20511;-42
2023/05/01 05:43:06;;;;;;;5.53;2.70;;;12.80;97.30;;;;;;5041595;28;20064;-43
2023/05/01 05:45:37;;;;;;;4.20;2.83;;;12.80;97.30;;;;;;5040995;28;20040;-43
2023/05/01 05:48:03;;;;;;;4.32;2.97;;;12.80;97.30;;;;;;5041042;28;20045;-44
2023/05/01 05:50:28;;;;;;;4.38;2.85;;;12.80;97.30;;;;;;5041132;28;20452;-43
2023/05/01 05:52:55;;;;;;;5.50;3.00;;;12.90;97.30;;;;;;5041562;28;20041;-43
2023/05/01 05:55:20;;;;;;;4.90;3.20;;;12.90;97.30;;;;;;5038212;28;20032;-43
2023/05/01 05:57:46;;;;;;;5.38;3.20;;;12.90;97.30;;;;;;5039551;28;20024;-43
2023/05/01 06:00:13;;;;;;;5.13;2.85;;;12.90;97.30;;;;;;5041113;28;20017;-43
2023/05/01 06:02:41;;;;;;;5.65;2.97;;;12.90;97.30;;;;;;5023916;28;20075;-42
2023/05/01 06:05:13;;;;;;;5.43;3.28;;;13.00;97.30;;;;;;5036109;28;20045;-44
2023/05/01 06:07:38;;;;;;;3.72;2.60;;;13.00;97.30;;;;;;5040506;28;20615;-43
2023/05/01 06:10:05;;;;;;;5.80;3.35;;;13.00;97.40;;;;;;5040135;28;20028;-43
2023/05/01 06:12:33;;;;;;;5.18;3.13;;;13.10;97.30;;;;;;5039937;28;20128;-43
2023/05/01 06:14:59;;;;;;;4.47;2.90;;;13.10;97.30;;;;;;5030682;28;20072;-43
2023/05/01 06:17:25;;;;;;;5.57;2.90;;;13.10;97.30;;;;;;5040998;28;20454;-43
2023/05/01 06:19:54;;;;;;;4.43;3.03;;;13.10;97.40;;;;;;5040980;28;20040;-43
2023/05/01 06:22:20;;;;;;;4.82;2.90;;;13.10;97.40;;;;;;5041667;28;20546;-43
2023/05/01 06:24:45;;;;;;;6.55;3.00;;;13.10;97.40;;;;;;5040199;28;20024;-44
2023/05/01 06:27:11;;;;;;;4.43;2.65;;;13.10;97.40;;;;;;5039710;28;20071;-43
2023/05/01 06:29:37;;;;;;;6.03;3.20;;;13.10;97.50;;;;;;5039126;28;20160;-44
2023/05/01 06:32:03;;;;;;;5.43;3.22;;;13.20;97.50;;;;;;5039203;28;20514;-43
2023/05/01 06:34:28;;;;;;;5.43;3.00;;;13.10;97.60;;;;;;5039452;28;20033;-43
2023/05/01 06:36:54;;;;;;;5.65;3.40;;;13.10;97.60;;;;;;5040032;28;20484;-43
2023/05/01 06:39:20;;;;;;;4.65;3.13;;;13.10;97.70;;;;;;5038352;28;20033;-43
2023/05/01 06:41:46;;;;;;;6.95;3.38;;;13.20;97.80;;;;;;5035655;28;20021;-43
2023/05/01 06:44:12;;;;;;;5.25;2.90;;;13.20;97.90;;;;;;5040661;28;20082;-44
2023/05/01 06:46:37;;;;;;;5.55;3.40;;;13.20;97.90;;;;;;5040034;28;20029;-43
2023/05/01 06:49:03;;;;;;;4.43;3.25;;;13.20;97.90;;;;;;5040253;28;20048;-43
2023/05/01 06:51:30;;;;;;;6.40;3.25;;;13.30;98.00;;;;;;5040281;28;20021;-43
2023/05/01 06:53:56;;;;;;;5.07;3.22;;;13.30;98.10;;;;;;5039322;28;20032;-43
2023/05/01 06:56:21;;;;;;;5.95;2.97;;;13.30;98.10;;;;;;5040327;28;20091;-43
2023/05/01 06:58:49;;;;;;;5.40;3.97;;;13.40;98.10;;;;;;5040468;28;20128;-43
2023/05/01 07:01:16;;;;;;;8.13;3.67;;;13.40;98.10;;;;;;5043650;28;20013;-44
2023/05/01 07:03:41;;;;;;;5.28;3.20;;;13.50;98.20;;;;;;5043939;28;20025;-43
2023/05/01 07:06:07;;;;;;;9.80;3.70;;;13.50;98.20;;;;;;5043838;28;20028;-43
2023/05/01 07:08:32;;;;;;;6.05;3.58;;;13.60;98.20;;;;;;5043832;28;20025;-43
2023/05/01 07:11:01;;;;;;;7.00;4.05;;;13.70;98.20;;;;;;5044517;28;20429;-43
2023/05/01 07:13:26;;;;;;;5.68;3.80;;;13.80;98.20;;;;;;5044106;28;20065;-42
2023/05/01 07:15:52;;;;;;;5.50;3.55;;;13.80;98.10;;;;;;5043608;28;20152;-43
2023/05/01 07:18:18;;;;;;;5.22;4.00;;;13.80;98.10;;;;;;5044674;28;20029;-43
2023/05/01 07:20:44;;;;;;;3.92;3.28;;;13.90;98.10;;;;;;5043948;28;20103;-43
2023/05/01 07:23:10;;;;;;;4.13;3.22;;;14.00;98.10;;;;;;5032458;28;20025;-43
2023/05/01 07:25:43;;;;;;;7.95;3.72;;;14.00;98.10;;;;;;5043990;28;20029;-43
2023/05/01 07:28:08;;;;;;;5.70;3.63;;;14.10;98.20;;;;;;5044095;28;20048;-42
2023/05/01 07:30:37;;;;;;;6.43;3.50;;;14.20;98.10;;;;;;5044564;28;20124;-43
2023/05/01 07:33:04;;;;;;;4.38;3.28;;;14.20;98.10;;;;;;5043655;28;20060;-43
2023/05/01 07:35:30;;;;;;;4.32;3.13;;;14.30;98.10;;;;;;5042812;28;20036;-44
2023/05/01 07:37:58;;;;;;;5.70;3.33;;;14.40;98.10;;;;;;5044047;28;20033;-44
2023/05/01 07:40:24;;;;;;;3.80;3.42;;;14.50;98.10;;;;;;5043871;28;20021;-44
2023/05/01 07:42:52;;;;;;;5.90;3.97;;;14.60;98.10;;;;;;5042695;28;20481;-43
2023/05/01 07:45:17;;;;;;;5.10;3.28;;;14.70;98.00;;;;;;5043550;28;20127;-43
2023/05/01 07:47:43;;;;;;;6.63;3.53;;;14.70;97.90;;;;;;5042633;28;20048;-43
2023/05/01 07:50:12;;;;;;;5.70;4.03;;;14.90;97.90;;;;;;5042845;28;20116;-42
2023/05/01 07:52:38;;;;;;;7.35;3.60;;;15.00;97.80;;;;;;5043024;28;20079;-43
2023/05/01 07:55:04;;;;;;;5.68;3.85;;;15.00;97.70;;;;;;5043359;28;20029;-42
2023/05/01 07:57:32;;;;;;;6.13;3.88;;;15.10;97.60;;;;;;5042687;28;20032;-43
2023/05/01 07:59:58;;;;;;;6.07;3.72;;;15.20;97.50;;;;;;5043175;28;20025;-43
2023/05/01 08:02:26;;;;;;;5.18;3.47;;;15.30;97.40;;;;;;5042710;28;20502;-44
2023/05/01 08:04:52;;;;;;;4.55;3.63;;;15.30;97.40;;;;;;5042411;28;20029;-45
2023/05/01 08:07:18;;;;;;;6.63;3.85;;;15.40;97.40;;;;;;5043649;28;20075;-42
2023/05/01 08:09:45;;;;;;;6.22;3.88;;;15.40;97.30;;;;;;5042955;28;20039;-43
2023/05/01 08:12:11;;;;;;;5.25;3.83;;;15.50;97.30;;;;;;5041968;28;20055;-42
2023/05/01 08:14:36;;;;;;;6.20;4.30;;;15.50;97.30;;;;;;5042530;28;20132;-43
2023/05/01 08:17:02;;;;;;;7.85;4.00;;;15.50;97.30;;;;;;5041538;28;20617;-42
2023/05/01 08:19:27;;;;;;;5.95;3.78;;;15.50;97.30;;;;;;5041981;28;20515;-43
2023/05/01 08:21:53;;;;;;;6.47;4.10;;;15.50;97.30;;;;;;5044197;28;20372;-43
2023/05/01 08:24:19;;;;;;;8.00;4.65;;;15.50;97.20;;;;;;5043342;28;20063;-42
2023/05/01 08:26:45;;;;;;;7.43;4.50;;;15.50;97.20;;;;;;5042621;28;20036;-42
2023/05/01 08:29:10;;;;;;;5.80;4.22;;;15.50;97.20;;;;;;5042777;28;20480;-43
2023/05/01 08:31:41;;;;;;;6.72;3.95;;;15.50;97.30;;;;;;5042637;28;20033;-43
2023/05/01 08:34:07;;;;;;;4.47;3.63;;;15.50;97.40;;;;;;5042623;28;20091;-43
2023/05/01 08:36:33;;;;;;;4.55;3.70;;;15.60;97.50;;;;;;5042687;28;20033;-42
2023/05/01 08:39:05;;;;;;;5.78;4.00;;;15.60;97.50;;;;;;5042291;28;20017;-42
2023/05/01 08:41:34;;;;;;;5.95;3.70;;;15.70;97.50;;;;;;5042294;28;20476;-43
2023/05/01 08:44:00;;;;;;;5.75;4.18;;;15.70;97.50;;;;;;5042112;28;20057;-43
2023/05/01 08:46:47;;;;;;;6.63;3.80;;;15.70;97.60;;;;;;5041326;28;20155;-43
2023/05/01 08:49:16;;;;;;;4.82;3.75;;;15.80;97.60;;;;;;5042092;28;20121;-43
2023/05/01 08:51:46;;;;;;;4.45;3.78;;;15.80;97.60;;;;;;5041886;28;20138;-42
2023/05/01 08:54:16;;;;;;;7.93;5.55;;;15.90;97.50;;;;;;5041587;28;20079;-43
2023/05/01 08:56:46;;;;;;;6.80;4.68;;;15.90;97.50;;;;;;5042027;28;20515;-42
2023/05/01 08:59:13;;;;;;;5.60;4.30;;;15.90;97.60;;;;;;5042602;28;20078;-43
2023/05/01 09:01:40;;;;;;;7.35;4.35;;;16.00;97.70;;;;;;5041028;28;20919;-42
2023/05/01 09:04:10;;;;;;;7.88;4.43;;;16.00;97.70;;;;;;5042352;28;20079;-43
2023/05/01 09:06:36;;;;;;;6.30;3.78;;;16.10;97.70;;;;;;5041376;28;20124;-43
2023/05/01 09:09:02;;;;;;;6.60;4.50;;;16.20;97.70;;;;;;5041641;28;20029;-42
2023/05/01 09:11:28;;;;;;;5.18;3.60;;;16.20;97.70;;;;;;5041850;28;20157;-43
2023/05/01 09:13:54;;;;;;;3.97;2.90;;;16.30;97.70;;;;;;5040858;28;20866;-43
2023/05/01 09:16:20;;;;;;;5.70;3.60;;;16.30;97.60;;;;;;5041962;28;20023;-43
2023/05/01 09:18:46;;;;;;;3.10;2.60;;;16.40;97.60;;;;;;5041926;28;20025;-42
2023/05/01 09:21:18;;;;;;;4.47;2.97;;;16.40;97.60;;;;;;5041038;28;20035;-44
2023/05/01 09:23:44;;;;;;;3.33;2.83;;;16.50;97.50;;;;;;5040834;28;20029;-43
2023/05/01 09:26:10;;;;;;;3.80;2.97;;;16.60;97.50;;;;;;5042242;28;20033;-44
2023/05/01 09:28:50;;;;;;;4.53;2.92;;;16.60;97.50;;;;;;5041140;28;20017;-43
2023/05/01 09:31:31;;;;;;;3.53;2.70;;;16.60;97.40;;;;;;5041869;28;20090;-43
2023/05/01 09:34:04;;;;;;;3.38;2.40;;;16.70;97.40;;;;;;5022015;28;20041;-42
2023/05/01 09:36:32;;;;;;;4.03;2.90;;;16.90;97.40;;;;;;5036761;28;20396;-44
2023/05/01 09:39:01;;;;;;;3.55;2.88;;;17.00;97.30;;;;;;5041572;28;20648;-43
2023/05/01 09:41:27;;;;;;;3.70;2.90;;;17.20;97.20;;;;;;5041502;28;20029;-43
2023/05/01 09:43:57;;;;;;;5.60;3.05;;;17.40;97.10;;;;;;5041380;28;20029;-43
2023/05/01 09:46:24;;;;;;;3.72;3.00;;;17.60;96.90;;;;;;5041414;28;20025;-43
2023/05/01 09:49:02;;;;;;;3.67;2.88;;;17.80;96.70;;;;;;5040564;28;20045;-43
2023/05/01 09:51:31;;;;;;;4.38;3.03;;;17.90;96.60;;;;;;5040842;28;20488;-43
2023/05/01 09:54:00;;;;;;;2.83;2.10;;;18.10;96.30;;;;;;5041045;28;20082;-43
2023/05/01 09:56:28;;;;;;;3.70;2.80;;;18.20;96.30;;;;;;5039743;28;20025;-43
2023/05/01 09:58:55;;;;;;;4.65;3.67;;;18.30;96.20;;;;;;5041349;28;20028;-45
2023/05/01 10:01:40;;;;;;;5.60;3.25;;;18.40;96.00;;;;;;5040693;28;20033;-43
2023/05/01 10:04:07;;;;;;;4.10;2.60;;;18.50;95.90;;;;;;5040451;28;20049;-43
2023/05/01 10:06:36;;;;;;;3.78;2.58;;;18.60;95.90;;;;;;5040378;28;20059;-43
2023/05/01 10:09:03;;;;;;;2.83;2.20;;;18.70;95.80;;;;;;5040554;28;20122;-43
2023/05/01 10:11:29;;;;;;;3.55;2.53;;;18.80;95.60;;;;;;5040590;28;20024;-43
2023/05/01 10:14:09;;;;;;;3.42;2.40;;;18.90;95.60;;;;;;5041192;28;20051;-43
2023/05/01 10:16:38;;;;;;;1.98;1.80;;;18.90;95.40;;;;;;5040853;28;20642;-43
2023/05/01 10:19:04;;;;;;;2.70;2.15;;;19.10;95.30;;;;;;5029372;28;20021;-44
2023/05/01 10:21:32;;;;;;;2.35;1.80;;;19.10;95.20;;;;;;5040254;28;20476;-43
2023/05/01 10:23:59;;;;;;;3.30;2.10;;;19.20;95.10;;;;;;5040522;28;20021;-44
2023/05/01 10:26:25;;;;;;;4.28;1.70;;;19.40;95.00;;;;;;5040203;28;20044;-43
2023/05/01 10:28:51;;;;;;;2.75;2.10;;;19.40;94.90;;;;;;5040854;28;20028;-43
2023/05/01 10:31:17;;;;;;;2.30;1.48;;;19.60;95.00;;;;;;5039876;28;20047;-44
2023/05/01 10:33:46;;;;;;;2.17;1.88;;;19.80;95.00;;;;;;5039499;28;20132;-43
2023/05/01 10:36:19;;;;;;;2.63;2.00;;;19.90;94.80;;;;;;5040046;28;20606;-43
2023/05/01 10:38:47;;;;;;;3.38;2.00;;;20.00;94.50;;;;;;5039983;28;20021;-43
2023/05/01 10:41:14;;;;;;;3.33;1.95;;;20.10;94.50;;;;;;5045256;28;20709;-43
2023/05/01 10:43:40;;;;;;;2.65;1.80;;;20.20;94.40;;;;;;5039961;28;20036;-43
2023/05/01 10:46:20;;;;;;;2.30;1.65;;;20.20;93.80;;;;;;5042097;28;20021;-44
2023/05/01 10:48:45;;;;;;;1.17;1.08;;;20.20;93.50;;;;;;5040281;28;20144;-43
2023/05/01 10:51:14;;;;;;;2.10;1.40;;;20.20;93.40;;;;;;5040679;28;20097;-43
2023/05/01 10:53:45;;;;;;;4.45;2.50;;;20.10;93.20;;;;;;5040074;28;20033;-44
2023/05/01 10:56:33;;;;;;;3.08;2.05;;;20.10;93.20;;;;;;5040958;28;20025;-44
2023/05/01 10:59:03;;;;;;;4.00;2.30;;;20.00;93.40;;;;;;5040092;28;20033;-44
2023/05/01 11:01:46;;;;;;;4.60;2.50;;;20.00;93.50;;;;;;5040015;28;20025;-43
2023/05/01 11:04:18;;;;;;;2.22;1.90;;;19.90;93.50;;;;;;5040901;28;20809;-43
2023/05/01 11:07:07;;;;;;;2.50;2.03;;;20.00;93.50;;;;;;5039792;28;20163;-43
2023/05/01 11:09:43;;;;;;;3.80;2.63;;;20.00;93.30;;;;;;5040043;28;20068;-43
2023/05/01 11:12:10;;;;;;;3.30;2.85;;;20.00;93.50;;;;;;5021413;28;20029;-43
2023/05/01 11:14:55;;;;;;;5.57;3.28;;;20.10;93.60;;;;;;5034414;28;20045;-43
2023/05/01 11:17:40;;;;;;;4.22;3.00;;;20.10;93.70;;;;;;5021470;28;20044;-44
2023/05/01 11:20:06;;;;;;;3.40;2.58;;;20.20;93.80;;;;;;5037560;28;20049;-43
2023/05/01 11:22:33;;;;;;;3.65;2.33;;;20.20;93.70;;;;;;5039564;28;20385;-44
2023/05/01 11:25:00;;;;;;;4.13;2.55;;;20.30;93.70;;;;;;5040574;28;20103;-44
2023/05/01 11:27:26;;;;;;;4.07;2.30;;;20.40;93.70;;;;;;5039687;28;20029;-44
2023/05/01 11:29:52;;;;;;;2.40;1.92;;;20.50;93.60;;;;;;5039981;28;20025;-43
2023/05/01 11:32:23;;;;;;;3.63;2.60;;;20.60;93.40;;;;;;5040793;28;20029;-44
2023/05/01 11:34:52;;;;;;;3.58;2.70;;;20.80;93.30;;;;;;5039499;28;20340;-44
2023/05/01 11:37:18;;;;;;;3.42;2.42;;;20.90;93.20;;;;;;5040239;28;20021;-43
2023/05/01 11:40:10;;;;;;;4.15;1.98;;;21.00;93.00;;;;;;5040339;28;20043;-43
2023/05/01 11:42:36;;;;;;;3.58;2.20;;;21.00;92.60;;;;;;5037820;28;20045;-43
2023/05/01 11:45:11;;;;;;;2.63;2.42;;;21.10;92.20;;;;;;5039958;28;20021;-44
2023/05/01 11:47:37;;;;;;;4.03;3.20;;;21.20;92.20;;;;;;5043442;28;20668;-43
2023/05/01 11:50:03;;;;;;;4.40;2.85;;;21.20;92.20;;;;;;5042770;28;20021;-43
2023/05/01 11:52:29;;;;;;;3.53;2.17;;;21.20;92.20;;;;;;5043699;28;20067;-43
2023/05/01 11:54:55;;;;;;;4.45;2.40;;;21.10;91.70;;;;;;5043166;28;20112;-43
2023/05/01 11:57:20;;;;;;;3.70;1.85;;;21.00;89.20;;;;;;5042692;28;20461;-43
2023/05/01 11:59:47;;;;;;;2.08;1.42;;;20.90;90.10;;;;;;5042693;28;20027;-42
2023/05/01 12:02:19;;;;;;;2.78;1.70;;;20.80;90.30;;;;;;5044044;28;20029;-43
2023/05/01 12:04:45;;;;;;;2.35;1.40;;;20.70;90.20;;;;;;5042635;28;20320;-44
2023/05/01 12:07:21;;;;;;;2.38;1.83;;;20.60;89.40;;;;;;5042748;28;20770;-44
2023/05/01 12:09:49;;;;;;;2.92;1.83;;;20.50;89.30;;;;;;5042709;28;20132;-45
2023/05/01 12:12:15;;;;;;;3.33;1.80;;;20.50;89.30;;;;;;5042372;28;20053;-44
2023/05/01 12:14:41;;;;;;;3.67;2.20;;;20.40;85.80;;;;;;5042695;28;20172;-44
2023/05/01 12:17:08;;;;;;;5.32;2.25;;;20.30;84.00;;;;;;5042019;28;20408;-44
2023/05/01 12:19:44;;;;;;;3.85;1.95;;;20.20;81.80;;;;;;5042960;28;20139;-45
2023/05/01 12:22:10;;;;;;;4.53;2.10;;;20.10;82.90;;;;;;5042832;28;20029;-43
2023/05/01 12:24:36;;;;;;;4.32;1.33;;;20.20;83.00;;;;;;5042254;28;20079;-44
2023/05/01 12:27:08;;;;;;;2.92;1.70;;;20.20;83.80;;;;;;5043076;28;20392;-44
2023/05/01 12:29:40;;;;;;;3.03;1.60;;;20.40;82.10;;;;;;5043078;28;20037;-43
2023/05/01 12:32:06;;;;;;;3.83;2.30;;;20.40;81.30;;;;;;5042534;28;20032;-44
2023/05/01 12:34:33;;;;;;;3.10;1.85;;;20.50;78.30;;;;;;5042661;28;20587;-43
2023/05/01 12:36:58;;;;;;;4.10;1.90;;;20.50;79.90;;;;;;5042638;28;20092;-43
2023/05/01 12:39:25;;;;;;;2.65;1.58;;;20.50;78.30;;;;;;5041855;28;20736;-44
2023/05/01 12:41:52;;;;;;;2.10;1.48;;;20.50;79.70;;;;;;5042390;28;20236;-43
2023/05/01 12:44:25;;;;;;;3.20;1.90;;;20.50;79.30;;;;;;5042755;28;20044;-43
2023/05/01 12:46:57;;;;;;;4.38;1.83;;;20.40;76.50;;;;;;5041472;28;20082;-44
2023/05/01 12:49:23;;;;;;;;;;;20.20;77.10;;;;;;5043328;28;20528;-43
2023/05/01 12:51:50;;;;;;;3.30;1.83;;;20.00;77.90;;;;;;5041759;28;19915;-43
2023/05/01 12:54:20;;;;;;;3.28;1.85;;;19.90;78.80;;;;;;5042586;28;20029;-43